Time;durP1;ratioP1;P1;durP2;ratioP2;P2;SDS_P1;SDS_P2;PMS_P1;PMS_P2;Temp;Humidity;BMP_temperature;BMP_pressure;BME280_temperature;BME280_humidity;BME280_pressure;Samples;Min_cycle;Max_cycle;Signal;HPM_P1;HPM_P2
2022/01/20 00:01:59;;;;;;;0.10;0.10;;;4.40;99.90;;;;;;5094614;28;20643;-76
2022/01/20 00:04:35;;;;;;;0.10;0.10;;;4.40;99.90;;;;;;5083285;28;20640;-77
2022/01/20 00:26:28;;;;;;;0.10;0.10;;;4.10;99.90;;;;;;5051389;28;20710;-77
2022/01/20 00:28:58;;;;;;;0.10;0.10;;;4.10;99.90;;;;;;5083108;28;20619;-77
2022/01/20 00:31:42;;;;;;;0.10;0.10;;;4.10;99.90;;;;;;5087496;28;20704;-77
2022/01/20 00:34:14;;;;;;;0.20;0.20;;;4.00;99.90;;;;;;5089424;28;20742;-77
2022/01/20 00:39:29;;;;;;;0.10;0.10;;;4.00;99.90;;;;;;5087428;28;20649;-77
2022/01/20 00:41:57;;;;;;;0.10;0.10;;;3.90;99.90;;;;;;5082751;28;20615;-77
2022/01/20 00:44:24;;;;;;;0.10;0.10;;;3.90;99.90;;;;;;5092532;28;20673;-77
2022/01/20 00:46:51;;;;;;;0.10;0.10;;;3.90;99.90;;;;;;5090599;28;20730;-77
2022/01/20 00:49:18;;;;;;;0.10;0.10;;;3.80;99.90;;;;;;5095425;28;20654;-76
2022/01/20 00:51:46;;;;;;;0.10;0.10;;;3.80;99.90;;;;;;5085781;28;20628;-76
2022/01/20 00:54:12;;;;;;;0.17;0.17;;;3.80;99.90;;;;;;5095346;28;21243;-76
2022/01/20 00:56:41;;;;;;;0.10;0.10;;;3.80;99.90;;;;;;5089627;28;20615;-77
2022/01/20 00:59:08;;;;;;;0.20;0.20;;;3.70;99.90;;;;;;5085169;28;20699;-76
2022/01/20 01:01:35;;;;;;;0.10;0.10;;;3.70;99.90;;;;;;5095797;28;20679;-76
2022/01/20 01:04:02;;;;;;;0.10;0.10;;;3.70;99.90;;;;;;5087255;28;20628;-76
2022/01/20 01:06:47;;;;;;;0.10;0.10;;;3.70;99.90;;;;;;5084740;28;20631;-77
2022/01/20 01:09:14;;;;;;;0.10;0.10;;;3.70;99.90;;;;;;5086489;28;20683;-77
2022/01/20 01:11:45;;;;;;;0.10;0.10;;;3.70;99.90;;;;;;5088419;28;20627;-77
2022/01/20 01:14:13;;;;;;;0.10;0.10;;;3.60;99.90;;;;;;5083731;28;21216;-76
2022/01/20 01:20:03;;;;;;;0.10;0.10;;;3.60;99.90;;;;;;5082377;28;20624;-76
2022/01/20 01:22:29;;;;;;;0.10;0.10;;;3.50;99.90;;;;;;5082562;28;20655;-76
2022/01/20 01:24:57;;;;;;;0.10;0.10;;;3.50;99.90;;;;;;5081447;28;20763;-76
2022/01/20 01:27:27;;;;;;;0.10;0.10;;;3.50;99.90;;;;;;5082047;28;20669;-76
2022/01/20 01:30:07;;;;;;;0.10;0.10;;;3.50;99.90;;;;;;5086189;28;21053;-77
2022/01/20 01:32:45;;;;;;;0.10;0.10;;;3.40;99.90;;;;;;5090268;28;20633;-76
2022/01/20 01:35:12;;;;;;;0.10;0.10;;;3.40;99.90;;;;;;5083057;28;20666;-77
2022/01/20 01:40:21;;;;;;;0.10;0.10;;;3.30;99.90;;;;;;5083599;28;20612;-76
2022/01/20 01:42:51;;;;;;;0.10;0.10;;;3.30;99.90;;;;;;5082532;28;20666;-76
2022/01/20 01:45:21;;;;;;;0.10;0.10;;;3.30;99.90;;;;;;5106419;27;20649;-76
2022/01/20 01:47:48;;;;;;;0.10;0.10;;;3.30;99.90;;;;;;5091452;28;20619;-76
2022/01/20 01:50:20;;;;;;;0.10;0.10;;;3.20;99.90;;;;;;5084838;28;20639;-76
2022/01/20 01:52:47;;;;;;;0.10;0.10;;;3.20;99.90;;;;;;5085045;28;20612;-76
2022/01/20 01:55:15;;;;;;;0.10;0.10;;;3.20;99.90;;;;;;5086095;28;20651;-77
2022/01/20 01:57:44;;;;;;;0.20;0.20;;;3.10;99.90;;;;;;5078237;28;20620;-77
2022/01/20 02:00:16;;;;;;;0.10;0.10;;;3.10;99.90;;;;;;5088051;28;20662;-77
2022/01/20 02:02:51;;;;;;;0.10;0.10;;;3.10;99.90;;;;;;5081010;28;20642;-76
2022/01/20 02:06:07;;;;;;;0.10;0.10;;;3.10;99.90;;;;;;5075327;28;20656;-76
2022/01/20 02:08:40;;;;;;;0.10;0.10;;;3.00;99.90;;;;;;5104967;27;20700;-76
2022/01/20 02:19:35;;;;;;;0.20;0.20;;;3.00;99.90;;;;;;5082936;28;20648;-77
2022/01/20 02:22:24;;;;;;;0.10;0.10;;;3.00;99.90;;;;;;5086051;28;20591;-77
2022/01/20 02:25:19;;;;;;;0.10;0.10;;;2.90;99.90;;;;;;5085065;28;20658;-77
2022/01/20 02:27:47;;;;;;;0.10;0.10;;;2.90;99.90;;;;;;5083459;28;20616;-77
2022/01/20 02:30:16;;;;;;;0.10;0.10;;;2.90;99.90;;;;;;5085989;28;20686;-77
2022/01/20 02:32:51;;;;;;;0.10;0.10;;;3.00;99.90;;;;;;5086561;28;20630;-77
2022/01/20 02:35:17;;;;;;;0.10;0.10;;;3.00;99.90;;;;;;5089919;28;20657;-77
2022/01/20 02:37:47;;;;;;;0.10;0.10;;;3.00;99.90;;;;;;5089712;28;20641;-77
2022/01/20 02:40:33;;;;;;;0.10;0.10;;;3.00;99.90;;;;;;5083643;28;20715;-76
2022/01/20 02:45:45;;;;;;;0.10;0.10;;;3.00;99.90;;;;;;5089520;28;20647;-76
2022/01/20 02:48:13;;;;;;;0.10;0.10;;;2.90;99.90;;;;;;5090746;28;20628;-76
2022/01/20 02:50:40;;;;;;;0.10;0.10;;;2.90;99.90;;;;;;5089398;28;20666;-77
2022/01/20 02:53:09;;;;;;;0.10;0.10;;;2.90;99.90;;;;;;5091074;28;20620;-77
2022/01/20 02:55:36;;;;;;;0.10;0.10;;;2.90;99.90;;;;;;5087897;28;20662;-77
2022/01/20 02:58:03;;;;;;;0.13;0.13;;;2.90;99.90;;;;;;5086021;28;20615;-77
2022/01/20 03:00:33;;;;;;;0.10;0.10;;;2.90;99.90;;;;;;5084041;28;20608;-76
2022/01/20 03:03:00;;;;;;;0.10;0.10;;;2.80;99.90;;;;;;5093141;28;21261;-76
2022/01/20 03:05:30;;;;;;;0.10;0.10;;;2.80;99.90;;;;;;5083602;28;21315;-76
2022/01/20 03:08:01;;;;;;;0.10;0.10;;;2.80;99.90;;;;;;5083751;28;20639;-76
2022/01/20 03:10:30;;;;;;;0.10;0.10;;;2.80;99.90;;;;;;5089305;28;20704;-76
2022/01/20 03:12:58;;;;;;;0.10;0.10;;;2.80;99.90;;;;;;5092535;28;20682;-76
2022/01/20 03:15:25;;;;;;;0.10;0.10;;;2.80;99.90;;;;;;5093192;28;20655;-76
2022/01/20 03:17:53;;;;;;;0.10;0.10;;;2.80;99.90;;;;;;5082844;28;20630;-76
2022/01/20 03:20:20;;;;;;;0.10;0.10;;;2.80;99.90;;;;;;5088395;28;20639;-77
2022/01/20 03:22:47;;;;;;;0.10;0.10;;;2.90;99.90;;;;;;5088016;28;20620;-76
2022/01/20 03:25:15;;;;;;;0.10;0.10;;;2.90;99.90;;;;;;5079969;28;20647;-76
2022/01/20 03:27:43;;;;;;;0.10;0.10;;;2.90;99.90;;;;;;5080659;28;20650;-76
2022/01/20 03:30:11;;;;;;;0.10;0.10;;;2.90;99.90;;;;;;5087691;28;20644;-76
2022/01/20 03:32:39;;;;;;;0.10;0.10;;;2.90;99.90;;;;;;5087157;28;20623;-77
2022/01/20 03:35:07;;;;;;;0.20;0.20;;;3.00;99.90;;;;;;5087118;28;20663;-76
2022/01/20 03:37:35;;;;;;;0.10;0.10;;;3.00;99.90;;;;;;5089580;28;20729;-76
2022/01/20 03:40:05;;;;;;;0.10;0.10;;;3.00;99.90;;;;;;5087047;28;20661;-76
2022/01/20 03:42:33;;;;;;;0.10;0.10;;;3.00;99.90;;;;;;5094142;28;21266;-76
2022/01/20 03:45:01;;;;;;;0.10;0.10;;;3.10;99.90;;;;;;5092424;28;20655;-76
2022/01/20 03:47:29;;;;;;;0.10;0.10;;;3.10;99.90;;;;;;5089029;28;20657;-76
2022/01/20 03:50:08;;;;;;;0.10;0.10;;;3.20;99.90;;;;;;5090373;28;20644;-78
2022/01/20 03:52:35;;;;;;;0.10;0.10;;;3.20;99.90;;;;;;5095914;28;20595;-76
2022/01/20 03:55:03;;;;;;;0.10;0.10;;;3.20;99.90;;;;;;5094537;28;20659;-74
2022/01/20 03:57:45;;;;;;;0.10;0.10;;;3.30;99.90;;;;;;5085682;28;20624;-74
2022/01/20 04:00:24;;;;;;;0.10;0.10;;;3.30;99.90;;;;;;5090111;28;20619;-75
2022/01/20 04:03:09;;;;;;;0.10;0.10;;;3.40;99.90;;;;;;5083640;28;21202;-74
2022/01/20 04:05:57;;;;;;;0.10;0.10;;;3.40;99.90;;;;;;5085344;28;20689;-75
2022/01/20 04:08:41;;;;;;;0.10;0.10;;;3.40;99.90;;;;;;5090717;28;20633;-75
2022/01/20 04:11:09;;;;;;;0.00;0.00;;;3.40;99.90;;;;;;5089329;28;20644;-75
2022/01/20 04:13:36;;;;;;;0.10;0.10;;;3.50;99.90;;;;;;5081631;28;20680;-75
2022/01/20 04:16:15;;;;;;;0.10;0.10;;;3.50;99.90;;;;;;5090017;28;20641;-75
2022/01/20 04:18:51;;;;;;;0.10;0.10;;;3.50;99.90;;;;;;5084904;28;20627;-74
2022/01/20 04:21:18;;;;;;;0.10;0.10;;;3.50;99.90;;;;;;5078173;28;20616;-75
2022/01/20 04:23:45;;;;;;;0.10;0.10;;;3.50;99.90;;;;;;5091642;28;20738;-75
2022/01/20 04:26:12;;;;;;;0.20;0.20;;;3.50;99.90;;;;;;5092329;28;20651;-75
2022/01/20 04:28:39;;;;;;;0.13;0.13;;;3.50;99.90;;;;;;5094214;28;20623;-75
2022/01/20 04:31:06;;;;;;;0.10;0.10;;;3.50;99.90;;;;;;5089620;28;20659;-75
2022/01/20 04:33:35;;;;;;;0.10;0.10;;;3.50;99.90;;;;;;5096798;28;20608;-75
2022/01/20 04:36:04;;;;;;;0.10;0.10;;;3.40;99.90;;;;;;5087729;28;20683;-75
2022/01/20 04:38:31;;;;;;;0.10;0.10;;;3.40;99.90;;;;;;5089343;28;20627;-75
2022/01/20 04:40:58;;;;;;;0.10;0.10;;;3.40;99.90;;;;;;5086016;28;20704;-75
2022/01/20 04:43:26;;;;;;;0.10;0.10;;;3.40;99.90;;;;;;5092551;28;20806;-75
2022/01/20 04:46:00;;;;;;;0.10;0.10;;;3.40;99.90;;;;;;5090504;28;20651;-75
2022/01/20 04:48:41;;;;;;;0.10;0.10;;;3.30;99.90;;;;;;5091405;28;20685;-74
2022/01/20 04:59:24;;;;;;;0.10;0.10;;;3.20;99.90;;;;;;5087625;28;20608;-74
2022/01/20 05:01:51;;;;;;;0.10;0.10;;;3.20;99.90;;;;;;5086903;28;20686;-74
2022/01/20 05:04:41;;;;;;;0.10;0.10;;;3.20;99.90;;;;;;5082978;28;20713;-73
2022/01/20 05:07:39;;;;;;;0.10;0.10;;;3.10;99.90;;;;;;5084810;28;20626;-75
2022/01/20 05:10:11;;;;;;;0.10;0.10;;;3.00;99.90;;;;;;5067448;28;20613;-74
2022/01/20 05:13:01;;;;;;;0.10;0.10;;;3.00;99.90;;;;;;5089587;28;20663;-75
2022/01/20 05:15:26;;;;;;;0.10;0.10;;;3.00;99.90;;;;;;5084407;28;20656;-76
2022/01/20 05:17:55;;;;;;;0.10;0.10;;;2.90;99.90;;;;;;5075492;28;20618;-75
2022/01/20 05:20:23;;;;;;;0.10;0.10;;;2.90;99.90;;;;;;5087347;28;20631;-75
2022/01/20 05:22:51;;;;;;;0.10;0.10;;;2.90;99.90;;;;;;5086372;28;20643;-75
2022/01/20 05:25:22;;;;;;;0.10;0.10;;;2.90;99.90;;;;;;5064818;28;20652;-75
2022/01/20 05:27:49;;;;;;;0.10;0.10;;;2.90;99.90;;;;;;5065643;28;20666;-76
2022/01/20 05:30:17;;;;;;;0.10;0.10;;;2.80;99.90;;;;;;5070409;28;20596;-77
2022/01/20 05:33:03;;;;;;;0.10;0.10;;;2.70;99.90;;;;;;5084334;28;20625;-74
2022/01/20 05:35:31;;;;;;;0.10;0.10;;;2.70;99.90;;;;;;5092008;28;20655;-73
2022/01/20 05:38:01;;;;;;;0.10;0.10;;;2.70;99.90;;;;;;5086295;28;20616;-73
2022/01/20 05:40:29;;;;;;;0.10;0.10;;;2.60;99.90;;;;;;5090675;28;20623;-73
2022/01/20 05:42:56;;;;;;;0.10;0.10;;;2.60;99.90;;;;;;5089869;28;20619;-74
2022/01/20 05:45:24;;;;;;;0.10;0.10;;;2.60;99.90;;;;;;5088875;28;21078;-73
2022/01/20 05:47:59;;;;;;;0.10;0.10;;;2.60;99.90;;;;;;5089550;28;20630;-73
2022/01/20 05:50:47;;;;;;;0.10;0.10;;;2.60;99.90;;;;;;5088459;28;20665;-75
2022/01/20 05:53:15;;;;;;;0.10;0.10;;;2.60;99.90;;;;;;5086224;28;20677;-74
2022/01/20 05:55:43;;;;;;;0.10;0.10;;;2.60;99.90;;;;;;5083522;28;20656;-75
2022/01/20 05:58:10;;;;;;;0.20;0.20;;;2.50;99.90;;;;;;5081231;28;20627;-76
2022/01/20 06:00:38;;;;;;;0.10;0.10;;;2.50;99.90;;;;;;5072000;28;20706;-76
2022/01/20 06:05:54;;;;;;;0.10;0.10;;;2.50;99.90;;;;;;5082276;28;20664;-75
2022/01/20 06:08:22;;;;;;;0.10;0.10;;;2.50;99.90;;;;;;5095337;28;20623;-75
2022/01/20 06:10:49;;;;;;;0.10;0.10;;;2.50;99.90;;;;;;5080398;28;20671;-75
2022/01/20 06:13:25;;;;;;;0.10;0.10;;;2.50;99.90;;;;;;5087776;28;20623;-74
2022/01/20 06:15:52;;;;;;;0.10;0.10;;;2.40;99.90;;;;;;5080042;28;21005;-75
2022/01/20 06:18:20;;;;;;;0.10;0.10;;;2.20;99.90;;;;;;5091277;28;20641;-74
2022/01/20 06:20:58;;;;;;;0.13;0.13;;;2.10;99.90;;;;;;5080028;28;20607;-75
2022/01/20 06:23:28;;;;;;;0.10;0.10;;;2.10;99.90;;;;;;5080352;28;20631;-75
2022/01/20 06:25:56;;;;;;;0.10;0.10;;;2.00;99.90;;;;;;5083549;28;20649;-75
2022/01/20 06:28:24;;;;;;;0.10;0.10;;;2.00;99.90;;;;;;5082723;28;20624;-74
2022/01/20 06:30:51;;;;;;;0.10;0.10;;;1.90;99.90;;;;;;5087359;28;20643;-74
2022/01/20 06:33:18;;;;;;;0.10;0.10;;;1.90;99.90;;;;;;5088123;28;20629;-74
2022/01/20 06:35:52;;;;;;;0.20;0.20;;;1.90;99.90;;;;;;5086118;28;20723;-74
2022/01/20 06:38:22;;;;;;;0.10;0.10;;;1.80;99.90;;;;;;5083050;28;20620;-75
2022/01/20 06:40:51;;;;;;;0.10;0.10;;;1.80;99.90;;;;;;5084188;28;20624;-74
2022/01/20 06:43:18;;;;;;;0.10;0.10;;;1.80;99.90;;;;;;5091162;28;20625;-74
2022/01/20 06:45:45;;;;;;;0.10;0.10;;;1.80;99.90;;;;;;5086780;28;20654;-74
2022/01/20 06:48:17;;;;;;;0.13;0.13;;;1.70;99.90;;;;;;5083702;28;20619;-76
2022/01/20 06:51:08;;;;;;;0.17;0.17;;;1.70;99.90;;;;;;5075938;28;20655;-75
2022/01/20 06:53:35;;;;;;;0.10;0.10;;;1.70;99.90;;;;;;5070925;28;20648;-75
2022/01/20 06:56:04;;;;;;;0.10;0.10;;;1.70;99.90;;;;;;5087555;28;20694;-75
2022/01/20 06:58:32;;;;;;;0.10;0.10;;;1.70;99.90;;;;;;5082881;28;21024;-76
2022/01/20 07:00:59;;;;;;;0.10;0.10;;;1.70;99.90;;;;;;5080061;28;20624;-74
2022/01/20 07:03:26;;;;;;;0.10;0.10;;;1.60;99.90;;;;;;5087777;28;20625;-75
2022/01/20 07:05:53;;;;;;;0.17;0.17;;;1.60;99.90;;;;;;5085870;28;20713;-75
2022/01/20 07:08:23;;;;;;;0.20;0.20;;;1.60;99.90;;;;;;5079396;28;20624;-75
2022/01/20 07:10:50;;;;;;;0.20;0.20;;;1.50;99.90;;;;;;5085583;28;20663;-75
2022/01/20 07:13:19;;;;;;;0.20;0.20;;;1.50;99.90;;;;;;5085576;28;20639;-75
2022/01/20 07:15:46;;;;;;;0.20;0.20;;;1.50;99.90;;;;;;5082423;28;20687;-75
2022/01/20 07:18:13;;;;;;;0.10;0.10;;;1.50;99.90;;;;;;5082745;28;21474;-75
2022/01/20 07:20:41;;;;;;;0.10;0.10;;;1.50;99.90;;;;;;5086023;28;20627;-75
2022/01/20 07:23:20;;;;;;;0.20;0.20;;;1.50;99.90;;;;;;5077725;28;20635;-75
2022/01/20 07:25:57;;;;;;;0.10;0.10;;;1.40;99.90;;;;;;5082912;28;20652;-75
2022/01/20 07:28:25;;;;;;;0.20;0.20;;;1.40;99.90;;;;;;5081829;28;20626;-75
2022/01/20 07:30:55;;;;;;;0.10;0.10;;;1.40;99.90;;;;;;5085619;28;20718;-75
2022/01/20 07:33:22;;;;;;;0.10;0.10;;;1.50;99.90;;;;;;5078048;28;20656;-75
2022/01/20 07:35:54;;;;;;;0.10;0.10;;;1.50;99.90;;;;;;5079511;28;20728;-75
2022/01/20 07:38:22;;;;;;;0.10;0.10;;;1.50;99.90;;;;;;5080436;28;20623;-75
2022/01/20 07:40:49;;;;;;;0.10;0.10;;;1.50;99.90;;;;;;5085659;28;20622;-75
2022/01/20 07:43:16;;;;;;;0.20;0.20;;;1.50;99.90;;;;;;5086732;28;20643;-75
2022/01/20 07:45:47;;;;;;;0.10;0.10;;;1.50;99.90;;;;;;5091675;28;20654;-75
2022/01/20 07:48:28;;;;;;;0.10;0.10;;;1.50;99.90;;;;;;5090593;28;20619;-75
2022/01/20 07:51:06;;;;;;;0.20;0.20;;;1.60;99.90;;;;;;5086951;28;20619;-75
2022/01/20 07:53:36;;;;;;;0.10;0.10;;;1.60;99.90;;;;;;5076097;28;20644;-75
2022/01/20 07:56:05;;;;;;;0.20;0.20;;;1.60;99.90;;;;;;5088314;28;20725;-75
2022/01/20 07:58:32;;;;;;;0.10;0.10;;;1.60;99.90;;;;;;5086045;28;20722;-75
2022/01/20 08:01:01;;;;;;;0.10;0.10;;;1.60;99.90;;;;;;5082497;28;20662;-75
2022/01/20 08:03:30;;;;;;;0.10;0.10;;;1.60;99.90;;;;;;5093576;28;20628;-75
2022/01/20 08:06:24;;;;;;;0.20;0.20;;;1.60;99.90;;;;;;5084112;28;20772;-75
2022/01/20 08:08:58;;;;;;;0.10;0.10;;;1.70;99.90;;;;;;5087276;28;20635;-75
2022/01/20 08:11:31;;;;;;;0.10;0.10;;;1.70;99.90;;;;;;5083925;28;20652;-76
2022/01/20 08:14:28;;;;;;;0.20;0.20;;;1.70;99.90;;;;;;5085089;28;20659;-75
2022/01/20 08:16:57;;;;;;;0.10;0.10;;;1.80;99.90;;;;;;5084719;28;20604;-75
2022/01/20 08:19:24;;;;;;;0.10;0.10;;;1.80;99.90;;;;;;5082216;28;20663;-75
2022/01/20 08:21:53;;;;;;;0.20;0.20;;;1.90;99.90;;;;;;5088339;28;20638;-76
2022/01/20 08:24:20;;;;;;;0.20;0.20;;;1.90;99.90;;;;;;5080278;28;20654;-75
2022/01/20 08:26:47;;;;;;;0.20;0.20;;;2.00;99.90;;;;;;5088726;28;20630;-76
2022/01/20 08:29:14;;;;;;;0.20;0.20;;;2.10;99.90;;;;;;5092372;28;20661;-75
2022/01/20 08:31:42;;;;;;;0.10;0.10;;;2.20;99.90;;;;;;5083422;28;20662;-75
2022/01/20 08:34:37;;;;;;;0.10;0.10;;;2.20;99.90;;;;;;5080577;28;20674;-75
2022/01/20 08:37:25;;;;;;;0.13;0.13;;;2.30;99.90;;;;;;5078853;28;20752;-75
2022/01/20 08:39:54;;;;;;;0.17;0.17;;;2.40;99.90;;;;;;5088029;28;20864;-76
2022/01/20 08:42:24;;;;;;;0.20;0.20;;;2.50;99.90;;;;;;5081587;28;20614;-75
2022/01/20 08:44:53;;;;;;;0.10;0.10;;;2.60;99.90;;;;;;5091684;28;20681;-75
2022/01/20 08:47:21;;;;;;;0.10;0.10;;;2.70;99.90;;;;;;5088517;28;20635;-75
2022/01/20 08:49:54;;;;;;;0.10;0.10;;;2.80;99.90;;;;;;5093669;28;20665;-75
2022/01/20 08:52:22;;;;;;;0.10;0.10;;;2.90;99.90;;;;;;5082072;28;20651;-76
2022/01/20 08:54:55;;;;;;;0.10;0.10;;;2.90;99.90;;;;;;5084004;28;20648;-76
2022/01/20 08:57:37;;;;;;;0.10;0.10;;;2.90;99.90;;;;;;5094134;28;20628;-76
2022/01/20 09:00:08;;;;;;;0.10;0.10;;;3.00;99.90;;;;;;5091078;28;20628;-75
2022/01/20 09:02:44;;;;;;;0.20;0.20;;;3.00;99.90;;;;;;5085734;28;20632;-76
2022/01/20 09:05:14;;;;;;;0.10;0.10;;;3.10;99.90;;;;;;5092654;28;20715;-75
2022/01/20 09:07:51;;;;;;;0.10;0.10;;;3.10;99.90;;;;;;5081801;28;20599;-75
2022/01/20 09:10:20;;;;;;;0.10;0.10;;;3.20;99.90;;;;;;5092174;28;20604;-75
2022/01/20 09:15:36;;;;;;;0.10;0.10;;;3.20;99.90;;;;;;5080296;28;20648;-76
2022/01/20 09:18:18;;;;;;;0.10;0.10;;;3.30;99.90;;;;;;5085456;28;20689;-76
2022/01/20 09:20:47;;;;;;;0.10;0.10;;;3.30;99.90;;;;;;5084478;28;20632;-76
2022/01/20 09:23:14;;;;;;;0.10;0.10;;;3.30;99.90;;;;;;5084388;28;20729;-75
2022/01/20 09:25:42;;;;;;;0.10;0.10;;;3.40;99.90;;;;;;5082615;28;20758;-76
2022/01/20 09:28:10;;;;;;;0.10;0.10;;;3.50;99.90;;;;;;5090557;28;20719;-75
2022/01/20 09:30:40;;;;;;;0.10;0.10;;;3.50;99.90;;;;;;5088108;28;21081;-75
2022/01/20 09:33:13;;;;;;;0.10;0.10;;;3.50;99.90;;;;;;5080911;28;20667;-76
2022/01/20 09:35:44;;;;;;;0.10;0.10;;;3.50;99.90;;;;;;5082380;28;20640;-76
2022/01/20 09:38:13;;;;;;;0.20;0.20;;;3.60;99.90;;;;;;5086333;28;20754;-76
2022/01/20 09:40:40;;;;;;;0.10;0.10;;;3.60;99.90;;;;;;5088969;28;20610;-76
2022/01/20 09:43:10;;;;;;;0.10;0.10;;;3.60;99.90;;;;;;5082666;28;20616;-77
2022/01/20 09:45:38;;;;;;;0.10;0.10;;;3.60;99.90;;;;;;5087347;28;20668;-77
2022/01/20 09:48:06;;;;;;;0.10;0.10;;;3.70;99.90;;;;;;5079710;28;20627;-76
2022/01/20 09:51:04;;;;;;;0.10;0.10;;;3.70;99.90;;;;;;5081144;28;20628;-76
2022/01/20 09:53:51;;;;;;;0.10;0.10;;;3.80;99.90;;;;;;5079381;28;20666;-76
2022/01/20 09:56:30;;;;;;;0.10;0.10;;;3.80;99.90;;;;;;5079854;28;21317;-76
2022/01/20 09:58:57;;;;;;;0.20;0.20;;;3.80;99.90;;;;;;5083735;28;20632;-76
2022/01/20 10:01:35;;;;;;;0.10;0.10;;;3.80;99.90;;;;;;5078019;28;20638;-76
2022/01/20 10:04:03;;;;;;;0.10;0.10;;;3.90;99.90;;;;;;5087699;28;20742;-76
2022/01/20 10:06:30;;;;;;;0.10;0.10;;;3.90;99.90;;;;;;5084572;28;20643;-77
2022/01/20 10:09:10;;;;;;;0.10;0.10;;;3.90;99.90;;;;;;5091584;28;20849;-77
2022/01/20 10:11:53;;;;;;;0.10;0.10;;;3.90;99.90;;;;;;5086242;28;20615;-77
2022/01/20 10:14:41;;;;;;;0.10;0.10;;;3.90;99.90;;;;;;5087968;28;20655;-77
2022/01/20 10:17:35;;;;;;;0.10;0.10;;;4.00;99.90;;;;;;5083802;28;20700;-76
2022/01/20 10:20:09;;;;;;;0.10;0.10;;;3.90;99.90;;;;;;5089984;28;20663;-76
2022/01/20 10:23:00;;;;;;;0.10;0.10;;;4.00;99.90;;;;;;5085438;28;20623;-76
2022/01/20 10:25:51;;;;;;;0.10;0.10;;;4.00;99.90;;;;;;5078821;28;20648;-76
2022/01/20 10:28:30;;;;;;;0.10;0.10;;;4.10;99.90;;;;;;5086528;28;20627;-77
2022/01/20 10:30:59;;;;;;;0.10;0.10;;;4.10;99.90;;;;;;5083143;28;20636;-77
2022/01/20 10:33:26;;;;;;;0.10;0.10;;;4.20;99.90;;;;;;5084249;28;20644;-77
2022/01/20 10:35:53;;;;;;;0.10;0.10;;;4.10;99.90;;;;;;5088279;28;21062;-77
2022/01/20 10:38:31;;;;;;;0.10;0.10;;;4.20;99.90;;;;;;5087646;28;20639;-76
2022/01/20 10:41:04;;;;;;;0.10;0.10;;;4.20;99.90;;;;;;5087866;28;20689;-77
2022/01/20 10:43:36;;;;;;;0.20;0.20;;;4.20;99.90;;;;;;5088513;28;20608;-76
2022/01/20 10:46:18;;;;;;;0.10;0.10;;;4.20;99.90;;;;;;5080694;28;20706;-77
2022/01/20 10:48:58;;;;;;;0.10;0.10;;;4.20;99.90;;;;;;5091971;28;20646;-77
2022/01/20 10:51:25;;;;;;;0.10;0.10;;;4.30;99.90;;;;;;5082684;28;20713;-77
2022/01/20 10:54:00;;;;;;;0.10;0.10;;;4.20;99.90;;;;;;5086886;28;20660;-76
2022/01/20 10:56:31;;;;;;;0.10;0.10;;;4.10;99.90;;;;;;5092246;28;20627;-76
2022/01/20 10:59:07;;;;;;;0.10;0.10;;;4.00;99.90;;;;;;5087119;28;20855;-76
2022/01/20 11:01:37;;;;;;;0.17;0.17;;;4.10;99.90;;;;;;5092741;28;20630;-76
2022/01/20 11:04:05;;;;;;;0.10;0.10;;;4.30;99.90;;;;;;5087666;28;20619;-77
2022/01/20 11:06:36;;;;;;;0.10;0.10;;;4.40;99.90;;;;;;5091838;28;20611;-77
2022/01/20 11:09:21;;;;;;;0.10;0.10;;;4.40;99.90;;;;;;5087037;28;20619;-76
2022/01/20 11:12:19;;;;;;;0.10;0.10;;;4.30;99.90;;;;;;5030335;28;20676;-77
2022/01/20 11:14:57;;;;;;;0.10;0.10;;;4.20;99.90;;;;;;5085434;28;20698;-77
2022/01/20 11:17:26;;;;;;;0.10;0.10;;;4.10;99.90;;;;;;5076393;28;20680;-77
2022/01/20 11:19:58;;;;;;;0.20;0.20;;;4.00;99.90;;;;;;5085852;28;20620;-77
2022/01/20 11:22:26;;;;;;;0.17;0.17;;;4.20;99.90;;;;;;5081631;28;20612;-77
2022/01/20 11:25:11;;;;;;;0.10;0.10;;;4.20;99.90;;;;;;5085011;28;20655;-77
2022/01/20 11:28:08;;;;;;;0.10;0.10;;;4.30;99.90;;;;;;5088164;28;20618;-77
2022/01/20 11:30:55;;;;;;;0.20;0.20;;;4.30;99.90;;;;;;5078809;28;20630;-77
2022/01/20 11:33:34;;;;;;;0.10;0.10;;;4.40;99.90;;;;;;5078487;28;20651;-77
2022/01/20 11:36:02;;;;;;;0.10;0.10;;;4.40;99.90;;;;;;5089990;28;20736;-77
2022/01/20 11:38:39;;;;;;;0.10;0.10;;;4.30;99.90;;;;;;5084802;28;20627;-77
2022/01/20 11:41:07;;;;;;;0.10;0.10;;;4.20;99.90;;;;;;5087387;28;20656;-76
2022/01/20 11:43:38;;;;;;;0.10;0.10;;;4.10;99.90;;;;;;5096108;28;20637;-76
2022/01/20 11:46:13;;;;;;;0.10;0.10;;;4.10;99.90;;;;;;5087348;28;20639;-76
2022/01/20 11:49:06;;;;;;;0.10;0.10;;;4.10;99.90;;;;;;5082130;28;20714;-77
2022/01/20 11:51:46;;;;;;;0.10;0.10;;;4.10;99.90;;;;;;5069911;28;21033;-77
2022/01/20 11:54:18;;;;;;;0.10;0.10;;;4.00;99.90;;;;;;5085268;28;20702;-77
2022/01/20 11:56:46;;;;;;;0.10;0.10;;;4.00;99.90;;;;;;5091663;28;20608;-76
2022/01/20 11:59:16;;;;;;;0.10;0.10;;;4.00;99.90;;;;;;5089855;28;20642;-76
2022/01/20 12:01:45;;;;;;;0.10;0.10;;;4.00;99.90;;;;;;5093720;28;20622;-77
2022/01/20 12:04:12;;;;;;;0.10;0.10;;;4.00;99.90;;;;;;5089553;28;20667;-76
2022/01/20 12:06:47;;;;;;;0.10;0.10;;;4.00;99.90;;;;;;5089611;28;20613;-77
2022/01/20 12:09:30;;;;;;;0.10;0.10;;;4.00;99.90;;;;;;5093670;28;20627;-77
2022/01/20 12:11:57;;;;;;;0.10;0.10;;;4.00;99.90;;;;;;5090113;28;20654;-77
2022/01/20 12:14:35;;;;;;;0.10;0.10;;;3.90;99.90;;;;;;5084533;28;20655;-77
2022/01/20 12:17:05;;;;;;;0.10;0.10;;;3.90;99.90;;;;;;5087355;28;20607;-76
2022/01/20 12:19:32;;;;;;;0.10;0.10;;;4.00;99.90;;;;;;5089876;28;20650;-77
2022/01/20 12:22:02;;;;;;;0.10;0.10;;;4.20;99.90;;;;;;5084090;28;20619;-76
2022/01/20 12:24:29;;;;;;;0.10;0.10;;;4.20;99.90;;;;;;5086493;28;20763;-77
2022/01/20 12:26:57;;;;;;;0.10;0.10;;;4.20;99.90;;;;;;5082210;28;20634;-76
2022/01/20 12:29:35;;;;;;;0.10;0.10;;;4.10;99.90;;;;;;5078894;28;20991;-77
2022/01/20 12:32:10;;;;;;;0.10;0.10;;;4.00;99.90;;;;;;5077378;28;20658;-77
2022/01/20 12:34:37;;;;;;;0.17;0.17;;;4.00;99.90;;;;;;5073098;28;20663;-76
2022/01/20 12:37:04;;;;;;;0.10;0.10;;;3.90;99.90;;;;;;5072158;28;20616;-76
2022/01/20 12:39:34;;;;;;;0.10;0.10;;;3.90;99.90;;;;;;5073557;28;20681;-77
2022/01/20 12:42:03;;;;;;;0.10;0.10;;;3.80;99.90;;;;;;5080232;28;20620;-76
2022/01/20 12:44:48;;;;;;;0.10;0.10;;;3.70;99.90;;;;;;5083666;28;20666;-76
2022/01/20 12:47:15;;;;;;;0.20;0.20;;;3.70;99.90;;;;;;5072370;28;20616;-76
2022/01/20 12:49:42;;;;;;;0.10;0.10;;;3.70;99.90;;;;;;5080993;28;20651;-77
2022/01/20 12:52:11;;;;;;;0.10;0.10;;;3.70;99.90;;;;;;5073168;28;20759;-76
2022/01/20 12:54:39;;;;;;;0.20;0.20;;;3.80;99.90;;;;;;5075785;28;20662;-77
2022/01/20 12:57:08;;;;;;;0.10;0.10;;;3.70;99.90;;;;;;5083773;28;20627;-77
2022/01/20 12:59:37;;;;;;;0.10;0.10;;;3.70;99.90;;;;;;5088905;28;20612;-76
2022/01/20 13:02:12;;;;;;;0.10;0.10;;;3.70;99.90;;;;;;5094043;28;20647;-77
2022/01/20 13:05:04;;;;;;;0.10;0.10;;;3.60;99.90;;;;;;5090717;28;20643;-76
2022/01/20 13:07:34;;;;;;;0.10;0.10;;;3.50;99.90;;;;;;5085989;28;20721;-76
2022/01/20 13:10:17;;;;;;;0.10;0.10;;;3.30;99.90;;;;;;5083007;28;20684;-76
2022/01/20 13:12:46;;;;;;;0.10;0.10;;;3.10;99.90;;;;;;5090492;28;20641;-76
2022/01/20 13:15:20;;;;;;;0.10;0.10;;;3.10;99.90;;;;;;5088331;28;20735;-76
2022/01/20 13:17:49;;;;;;;0.10;0.10;;;3.00;99.90;;;;;;5086135;28;20627;-76
2022/01/20 13:20:20;;;;;;;0.10;0.10;;;3.00;99.90;;;;;;5084847;28;20623;-75
2022/01/20 13:22:55;;;;;;;0.10;0.10;;;2.90;99.90;;;;;;5086418;28;20994;-76
2022/01/20 13:25:25;;;;;;;0.10;0.10;;;2.90;99.90;;;;;;5084999;28;20667;-76
2022/01/20 13:27:53;;;;;;;0.10;0.10;;;2.80;99.90;;;;;;5084869;28;20615;-76
2022/01/20 13:30:29;;;;;;;0.10;0.10;;;2.80;99.90;;;;;;5085983;28;20600;-76
2022/01/20 13:32:58;;;;;;;0.10;0.10;;;2.80;99.90;;;;;;5084104;28;20618;-76
2022/01/20 13:35:25;;;;;;;0.10;0.10;;;2.80;99.90;;;;;;5084128;28;20655;-76
2022/01/20 13:38:01;;;;;;;0.10;0.10;;;2.80;99.90;;;;;;5084081;28;20627;-76
2022/01/20 13:40:28;;;;;;;0.10;0.10;;;2.80;99.90;;;;;;5083751;28;20634;-75
2022/01/20 13:45:50;;;;;;;0.10;0.10;;;2.90;99.90;;;;;;5084381;28;20713;-76
2022/01/20 13:48:27;;;;;;;0.10;0.10;;;3.00;99.90;;;;;;5085065;28;20618;-76
2022/01/20 13:50:57;;;;;;;0.10;0.10;;;3.00;99.90;;;;;;5085756;28;20568;-76
2022/01/20 13:53:27;;;;;;;0.10;0.10;;;3.00;99.90;;;;;;5084056;28;20648;-76
2022/01/20 13:55:56;;;;;;;0.10;0.10;;;3.10;99.90;;;;;;5084280;28;20651;-75
2022/01/20 13:58:25;;;;;;;0.20;0.20;;;3.10;99.90;;;;;;5084205;28;20634;-76
2022/01/20 14:00:53;;;;;;;0.10;0.10;;;3.00;99.90;;;;;;5085244;28;20659;-76
2022/01/20 14:03:23;;;;;;;0.10;0.10;;;3.00;99.90;;;;;;5085311;28;20560;-75
2022/01/20 14:05:52;;;;;;;0.10;0.10;;;3.10;99.90;;;;;;5083319;28;20656;-76
2022/01/20 14:08:20;;;;;;;0.10;0.10;;;3.10;99.90;;;;;;5084419;28;20665;-75
2022/01/20 14:10:46;;;;;;;0.10;0.10;;;3.00;99.90;;;;;;5083729;28;20623;-76
2022/01/20 14:13:14;;;;;;;0.10;0.10;;;3.10;99.90;;;;;;5083327;28;20734;-76
2022/01/20 14:15:41;;;;;;;0.10;0.10;;;3.10;99.90;;;;;;5083999;28;20742;-77
2022/01/20 14:18:08;;;;;;;0.13;0.13;;;3.00;99.90;;;;;;5084230;28;21197;-76
2022/01/20 14:20:38;;;;;;;0.10;0.10;;;3.00;99.90;;;;;;5083791;28;20592;-76